This is the latest recevied weather packets stored in our database for station/object K4GSL. If no packets are shown the sender has not sent any weather packets the latest 10 day(s).
| Time | Temp. | Humidity | Pressure | Rain* | Wind** | Luminosity | Snow |
|---|---|---|---|---|---|---|---|
| 1777685686 | 20.56° C | 65% | 1018.7 hPa | 0 mm | - | 64 W/m² | - |
| 1777685383 | 20.56° C | 65% | 1018.5 hPa | 0 mm | - | 81 W/m² | - |
| 1777685080 | 20.56° C | 64% | 1018.6 hPa | 0 mm | - | 91 W/m² | - |
| 1777684778 | 21.11° C | 62% | 1018.7 hPa | 0 mm | - | 117 W/m² | - |
| 1777684473 | 21.11° C | 63% | 1018.7 hPa | 0 mm | - | 114 W/m² | - |
| 1777684171 | 21.11° C | 62% | 1018.7 hPa | 0 mm | - | 170 W/m² | - |
| 1777683867 | 21.11° C | 63% | 1018.7 hPa | 0 mm | - | 193 W/m² | - |
| 1777683564 | 21.67° C | 60% | 1018.8 hPa | 0 mm | - | 184 W/m² | - |
| 1777683262 | 21.67° C | 60% | 1018.8 hPa | 0 mm | - | 211 W/m² | - |
| 1777682960 | 21.67° C | 61% | 1018.7 hPa | 0 mm | - | 220 W/m² | - |
| 1777682655 | 21.11° C | 62% | 1018.8 hPa | 0 mm | - | 212 W/m² | - |
| 1777682353 | 21.11° C | 61% | 1018.8 hPa | 0 mm | - | 108 W/m² | - |
| 1777682050 | 21.11° C | 60% | 1019 hPa | 0 mm | - | 106 W/m² | - |
| 1777681746 | 21.11° C | 60% | 1018.8 hPa | 0 mm | - | 203 W/m² | - |
| 1777681444 | 21.11° C | 61% | 1018.9 hPa | 0 mm | - | 221 W/m² | - |
| 1777681141 | 21.11° C | 62% | 1018.9 hPa | 0 mm | - | 238 W/m² | - |
| 1777680838 | 21.67° C | 61% | 1018.6 hPa | 0 mm | - | 271 W/m² | - |
| 1777680535 | 22.22° C | 57% | 1018.8 hPa | 0 mm | - | 296 W/m² | - |
| 1777680234 | 21.11° C | 60% | 1018.9 hPa | 0 mm | - | 334 W/m² | - |
| 1777679930 | 21.11° C | 60% | 1019 hPa | 0 mm | - | 371 W/m² | - |
| 1777679625 | 21.67° C | 58% | 1018.8 hPa | 0 mm | - | 387 W/m² | - |
| 1777679320 | 21.67° C | 59% | 1018.7 hPa | 0 mm | - | 423 W/m² | - |
| 1777679018 | 21.11° C | 59% | 1018.8 hPa | 0 mm | - | 458 W/m² | - |
| 1777678716 | 21.67° C | 60% | 1019.1 hPa | 0 mm | - | 130 W/m² | - |
| 1777678413 | 21.11° C | 61% | 1018.9 hPa | 0 mm | - | 187 W/m² | - |
* Rain latest hour (hover to see other rain measurements)
** Current wind speed in m/s (hover to see current wind gust speed)